createdAt,value
2022-11-19T00:02:11.166Z,2.00
2022-11-19T00:05:12.886Z,2.08
2022-11-19T00:08:18.604Z,1.88
2022-11-19T00:11:41.530Z,1.48
2022-11-19T00:14:43.151Z,2.45
2022-11-19T00:17:44.760Z,1.38
2022-11-19T00:20:46.355Z,1.33
2022-11-19T00:23:53.209Z,1.60
2022-11-19T00:26:56.024Z,1.73
2022-11-19T00:29:57.647Z,1.35
2022-11-19T00:32:59.263Z,1.35
2022-11-19T00:36:02.533Z,1.85
2022-11-19T00:39:05.525Z,1.38
2022-11-19T00:42:07.158Z,1.25
2022-11-19T00:45:09.727Z,1.00
2022-11-19T00:48:11.371Z,1.20
2022-11-19T00:51:13.393Z,1.10
2022-11-19T00:54:16.432Z,1.00
2022-11-19T00:57:18.192Z,1.48
2022-11-19T01:00:20.195Z,1.63
2022-11-19T01:03:22.080Z,1.38
2022-11-19T01:06:25.530Z,2.50
2022-11-19T01:09:29.437Z,2.05
2022-11-19T01:12:51.039Z,2.05
2022-11-19T01:15:52.674Z,2.42
2022-11-19T01:18:54.428Z,2.42
2022-11-19T01:21:56.065Z,2.22
2022-11-19T01:24:59.040Z,2.13
2022-11-19T01:28:00.740Z,2.10
2022-11-19T01:31:06.995Z,1.75
2022-11-19T01:34:08.649Z,1.90
2022-11-19T01:37:10.280Z,1.80
2022-11-19T01:40:15.149Z,1.90
2022-11-19T01:43:18.207Z,1.92
2022-11-19T01:46:22.005Z,1.73
2022-11-19T01:49:23.714Z,1.58
2022-11-19T01:52:25.454Z,1.83
2022-11-19T01:55:28.524Z,1.42
2022-11-19T01:58:33.769Z,2.00
2022-11-19T02:01:35.621Z,1.58
2022-11-19T02:04:39.500Z,1.40
2022-11-19T02:07:45.451Z,1.70
2022-11-19T02:10:58.651Z,1.70
2022-11-19T02:14:16.076Z,1.33
2022-11-19T02:17:26.600Z,2.40
2022-11-19T02:20:49.669Z,1.25
2022-11-19T02:24:21.846Z,1.38
2022-11-19T02:27:46.574Z,1.40
2022-11-19T02:30:52.675Z,1.55
2022-11-19T02:34:00.051Z,1.50
2022-11-19T02:37:08.155Z,1.50
2022-11-19T02:40:15.399Z,1.48
2022-11-19T02:43:21.029Z,1.55
2022-11-19T02:46:25.403Z,1.60
2022-11-19T02:49:31.858Z,1.30
2022-11-19T02:52:34.050Z,1.88
2022-11-19T02:55:37.853Z,1.63
2022-11-19T02:59:04.241Z,1.13
2022-11-19T03:02:28.197Z,1.80
2022-11-19T03:05:33.497Z,1.23
2022-11-19T03:08:35.667Z,1.45
2022-11-19T03:11:37.454Z,2.08
2022-11-19T03:15:08.124Z,1.45
2022-11-19T03:18:15.824Z,2.00
2022-11-19T03:21:23.335Z,1.48
2022-11-19T03:24:30.410Z,1.90
2022-11-19T03:27:38.206Z,1.83
2022-11-19T03:30:44.627Z,1.60
2022-11-19T03:33:51.607Z,1.50
2022-11-19T03:36:58.391Z,1.58
2022-11-19T03:40:03.021Z,1.98
2022-11-19T03:43:08.372Z,1.40
2022-11-19T03:46:14.964Z,1.60
2022-11-19T03:49:21.947Z,2.00
2022-11-19T03:52:23.611Z,1.85
2022-11-19T03:55:31.378Z,1.35
2022-11-19T03:58:39.003Z,2.28
2022-11-19T04:01:40.928Z,1.98
2022-11-19T04:04:43.958Z,1.60
2022-11-19T04:07:45.594Z,1.60
2022-11-19T04:10:47.151Z,1.52
2022-11-19T04:13:48.733Z,2.35
2022-11-19T04:16:50.354Z,1.70
2022-11-19T04:19:53.344Z,1.80
2022-11-19T04:22:54.970Z,2.10
2022-11-19T04:25:56.637Z,2.00
2022-11-19T04:29:01.434Z,2.00
2022-11-19T04:32:03.267Z,1.77
2022-11-19T04:35:06.775Z,2.90
2022-11-19T04:38:08.451Z,1.90
2022-11-19T04:41:10.131Z,1.65
2022-11-19T04:44:11.743Z,1.63
2022-11-19T04:47:13.391Z,1.50
2022-11-19T04:50:16.328Z,1.40
2022-11-19T04:53:18.560Z,1.73
2022-11-19T04:56:20.234Z,1.40
2022-11-19T04:59:22.122Z,1.00
2022-11-19T05:02:23.994Z,1.33
2022-11-19T05:05:26.923Z,1.40
2022-11-19T05:08:28.708Z,1.30
2022-11-19T05:11:30.349Z,1.05
2022-11-19T05:14:31.929Z,1.73
2022-11-19T05:17:33.543Z,1.20
2022-11-19T05:20:36.470Z,1.40
2022-11-19T05:23:38.130Z,1.33
2022-11-19T05:26:39.752Z,0.88
2022-11-19T05:29:41.390Z,1.00
2022-11-19T05:32:42.998Z,1.20
2022-11-19T05:35:45.923Z,1.25
2022-11-19T05:38:47.508Z,0.98
2022-11-19T05:41:49.200Z,0.82
2022-11-19T05:44:50.797Z,1.30
2022-11-19T05:47:54.735Z,0.75
2022-11-19T05:50:57.930Z,0.80
2022-11-19T05:53:59.601Z,0.82
2022-11-19T05:57:01.456Z,1.40
2022-11-19T06:00:03.934Z,0.95
2022-11-19T06:03:13.911Z,1.00
2022-11-19T06:06:17.039Z,1.55
2022-11-19T06:09:19.074Z,1.38
2022-11-19T06:12:20.955Z,1.02
2022-11-19T06:15:22.703Z,0.85
2022-11-19T06:18:24.490Z,0.73
2022-11-19T06:21:27.533Z,0.90
2022-11-19T06:24:29.849Z,1.30
2022-11-19T06:27:31.479Z,1.48
2022-11-19T06:30:33.157Z,1.13
2022-11-19T06:33:34.810Z,0.80
2022-11-19T06:36:42.793Z,0.80
2022-11-19T06:39:46.664Z,0.77
2022-11-19T06:42:50.932Z,0.98
2022-11-19T06:45:52.852Z,0.68
2022-11-19T06:48:54.536Z,1.08
2022-11-19T06:51:57.485Z,0.82
2022-11-19T06:54:59.110Z,1.20
2022-11-19T06:58:02.007Z,0.65
2022-11-19T07:01:03.725Z,1.00
2022-11-19T07:04:05.370Z,1.17
2022-11-19T07:07:09.830Z,1.00
2022-11-19T07:10:11.612Z,0.65
2022-11-19T07:13:13.378Z,0.88
2022-11-19T07:16:15.053Z,1.02
2022-11-19T07:19:17.476Z,2.25
2022-11-19T07:22:20.757Z,0.60
2022-11-19T07:25:22.402Z,0.80
2022-11-19T07:28:24.019Z,0.80
2022-11-19T07:31:25.619Z,0.60
2022-11-19T07:34:27.313Z,0.60
2022-11-19T07:37:30.437Z,0.57
2022-11-19T07:40:33.371Z,0.88
2022-11-19T07:43:36.327Z,0.90
2022-11-19T07:46:37.895Z,0.80
2022-11-19T07:49:39.597Z,1.13
2022-11-19T07:52:42.696Z,0.88
2022-11-19T07:55:47.019Z,0.70
2022-11-19T07:58:48.700Z,0.68
2022-11-19T08:01:50.478Z,1.00
2022-11-19T08:04:52.141Z,0.80
2022-11-19T08:07:55.131Z,0.63
2022-11-19T08:10:56.761Z,10.82
2022-11-19T08:14:01.074Z,2.58
2022-11-19T08:17:21.534Z,0.70
2022-11-19T08:20:23.191Z,0.57
2022-11-19T08:23:26.203Z,0.52
2022-11-19T08:26:27.877Z,0.55
2022-11-19T08:29:29.543Z,0.35
2022-11-19T08:32:31.171Z,0.40
2022-11-19T08:35:32.844Z,2.22
2022-11-19T08:38:38.651Z,0.50
2022-11-19T08:41:59.565Z,0.70
2022-11-19T08:45:01.133Z,0.82
2022-11-19T08:48:05.046Z,0.47
2022-11-19T08:51:10.078Z,0.73
2022-11-19T08:54:13.330Z,0.50
2022-11-19T08:57:14.990Z,0.30
2022-11-19T09:00:17.957Z,0.28
2022-11-19T09:03:19.581Z,0.47
2022-11-19T09:06:21.259Z,1.02
2022-11-19T09:09:24.272Z,1.42
2022-11-19T09:12:25.952Z,0.90
2022-11-19T09:15:28.179Z,0.52
2022-11-19T09:18:31.430Z,1.00
2022-11-19T09:21:32.999Z,0.57
2022-11-19T09:24:35.992Z,0.90
2022-11-19T09:27:38.214Z,1.10
2022-11-19T09:30:39.913Z,1.33
2022-11-19T09:33:44.398Z,0.80
2022-11-19T09:36:46.062Z,1.02
2022-11-19T09:39:49.111Z,1.00
2022-11-19T09:43:02.675Z,1.13
2022-11-19T09:46:14.609Z,1.02
2022-11-19T09:49:23.471Z,0.93
2022-11-19T09:52:28.483Z,0.93
2022-11-19T09:55:35.425Z,0.88
2022-11-19T09:58:41.365Z,0.88
2022-11-19T10:01:43.078Z,0.75
2022-11-19T10:04:45.426Z,0.73
2022-11-19T10:07:59.621Z,0.85
2022-11-19T10:11:20.385Z,0.40
2022-11-19T10:14:39.773Z,0.57
2022-11-19T10:17:53.010Z,2.88
2022-11-19T10:21:04.249Z,2.13
2022-11-19T10:27:29.653Z,0.70
2022-11-19T10:30:31.503Z,0.47
2022-11-19T10:33:37.381Z,0.65
2022-11-19T10:36:43.012Z,0.40
2022-11-19T10:39:50.000Z,0.50
2022-11-19T10:42:57.510Z,0.90
2022-11-19T10:46:02.823Z,0.30
2022-11-19T10:49:09.050Z,0.70
2022-11-19T10:52:24.772Z,0.70
2022-11-19T10:55:30.275Z,0.30
2022-11-19T10:58:39.077Z,0.60
2022-11-19T11:01:44.524Z,0.30
2022-11-19T11:05:01.005Z,0.45
2022-11-19T11:08:11.264Z,0.68
2022-11-19T11:11:13.066Z,1.30
2022-11-19T11:14:36.587Z,0.93
2022-11-19T11:20:46.454Z,0.40
2022-11-19T11:23:51.169Z,0.77
2022-11-19T11:30:21.217Z,1.60
2022-11-19T11:33:32.445Z,1.83
2022-11-19T11:36:36.089Z,1.33
2022-11-19T11:39:40.222Z,1.13
2022-11-19T11:42:41.860Z,1.02
2022-11-19T11:45:44.904Z,2.30
2022-11-19T11:48:49.181Z,1.42
2022-11-19T11:52:01.153Z,1.23
2022-11-19T11:55:05.037Z,1.55
2022-11-19T11:58:25.296Z,1.05
2022-11-19T12:01:28.261Z,0.95
2022-11-19T12:04:30.204Z,1.08
2022-11-19T12:07:58.150Z,1.15
2022-11-19T12:11:07.466Z,0.95
2022-11-19T12:14:11.339Z,1.52
2022-11-19T12:17:37.590Z,1.48
2022-11-19T12:20:47.723Z,1.33
2022-11-19T12:24:06.496Z,1.23
2022-11-19T12:27:19.886Z,1.20
2022-11-19T12:30:23.294Z,1.60
2022-11-19T12:33:39.650Z,2.05
2022-11-19T12:36:55.125Z,1.63
2022-11-19T12:40:04.019Z,1.73
2022-11-19T12:43:15.664Z,1.70
2022-11-19T12:46:28.223Z,1.77
2022-11-19T12:49:50.513Z,1.95
2022-11-19T12:53:12.570Z,1.80
2022-11-19T12:56:26.044Z,1.92
2022-11-19T12:59:41.371Z,1.63
2022-11-19T13:02:58.969Z,1.17
2022-11-19T13:06:08.733Z,1.38
2022-11-19T13:09:18.357Z,2.50
2022-11-19T13:12:24.594Z,2.17
2022-11-19T13:15:31.531Z,2.25
2022-11-19T13:18:36.729Z,1.98
2022-11-19T13:21:46.174Z,1.98
2022-11-19T13:24:52.315Z,1.30
2022-11-19T13:27:56.897Z,1.52
2022-11-19T13:31:02.823Z,1.73
2022-11-19T13:34:16.131Z,1.85
2022-11-19T13:37:31.086Z,2.15
2022-11-19T13:40:38.606Z,2.88
2022-11-19T13:43:59.610Z,1.73
2022-11-19T13:47:01.901Z,2.15
2022-11-19T13:50:11.422Z,1.60
2022-11-19T13:53:21.422Z,1.45
2022-11-19T13:56:23.395Z,1.77
2022-11-19T13:59:33.544Z,1.55
2022-11-19T14:02:59.879Z,2.38
2022-11-19T14:06:27.833Z,1.42
2022-11-19T14:09:38.732Z,1.70
2022-11-19T14:13:06.924Z,1.30
2022-11-19T14:16:40.327Z,1.05
2022-11-19T14:20:07.595Z,1.23
2022-11-19T14:23:27.895Z,1.67
2022-11-19T14:27:17.096Z,1.52
2022-11-19T14:30:41.204Z,1.75
2022-11-19T14:34:03.898Z,2.22
2022-11-19T14:37:16.111Z,2.50
2022-11-19T14:40:21.133Z,2.25
2022-11-19T14:43:42.899Z,2.70
2022-11-19T14:46:48.862Z,1.20
2022-11-19T14:49:53.924Z,1.80
2022-11-19T14:52:57.682Z,2.03
2022-11-19T14:56:01.448Z,2.65
2022-11-19T14:59:16.274Z,1.65
2022-11-19T15:02:25.032Z,1.65
2022-11-19T15:05:33.113Z,1.50
2022-11-19T15:08:47.972Z,1.73
2022-11-19T15:12:00.267Z,1.48
2022-11-19T15:15:35.349Z,1.60
2022-11-19T15:19:22.000Z,1.55
2022-11-19T15:22:44.652Z,1.65
2022-11-19T15:25:59.783Z,1.20
2022-11-19T15:29:10.282Z,1.20
2022-11-19T15:32:23.073Z,1.38
2022-11-19T15:35:47.857Z,1.35
2022-11-19T15:38:57.479Z,0.95
2022-11-19T15:42:04.402Z,7.20
2022-11-19T15:45:15.896Z,1.80
2022-11-19T15:48:23.708Z,1.25
2022-11-19T15:51:25.750Z,1.85
2022-11-19T15:54:30.354Z,1.30
2022-11-19T15:57:32.033Z,1.40
2022-11-19T16:00:44.564Z,1.30
2022-11-19T16:03:47.504Z,1.25
2022-11-19T16:06:51.323Z,1.98
2022-11-19T16:09:55.166Z,0.90
2022-11-19T16:13:17.776Z,1.33
2022-11-19T16:16:42.758Z,1.38
2022-11-19T16:19:44.445Z,1.15
2022-11-19T16:22:51.171Z,1.50
2022-11-19T16:25:54.474Z,1.25
2022-11-19T16:28:56.352Z,1.00
2022-11-19T16:32:01.992Z,1.05
2022-11-19T16:35:10.867Z,1.02
2022-11-19T16:38:17.345Z,1.33
2022-11-19T16:41:41.034Z,1.67
2022-11-19T16:44:44.401Z,2.47
2022-11-19T16:47:52.063Z,1.88
2022-11-19T16:50:53.805Z,1.63
2022-11-19T16:53:55.509Z,1.83
2022-11-19T16:56:58.641Z,1.60
2022-11-19T17:00:04.335Z,2.00
2022-11-19T17:03:19.367Z,2.13
2022-11-19T17:06:25.814Z,1.55
2022-11-19T17:09:41.509Z,1.65
2022-11-19T17:12:51.621Z,1.80
2022-11-19T17:15:53.430Z,1.30
2022-11-19T17:18:55.096Z,1.75
2022-11-19T17:21:59.764Z,1.90
2022-11-19T17:25:03.068Z,2.00
2022-11-19T17:28:06.316Z,1.83
2022-11-19T17:31:15.917Z,2.33
2022-11-19T17:34:29.659Z,1.55
2022-11-19T17:37:31.417Z,2.20
2022-11-19T17:40:33.118Z,2.05
2022-11-19T17:43:56.481Z,1.85
2022-11-19T17:46:58.695Z,2.08
2022-11-19T17:50:00.323Z,1.95
2022-11-19T17:53:02.392Z,2.10
2022-11-19T17:56:04.895Z,1.77
2022-11-19T17:59:08.046Z,1.77
2022-11-19T18:02:14.407Z,1.73
2022-11-19T18:05:19.705Z,4.05
2022-11-19T18:11:24.789Z,2.20
2022-11-19T18:14:28.076Z,1.80
2022-11-19T18:17:29.726Z,1.58
2022-11-19T18:20:31.485Z,1.65
2022-11-19T18:23:33.124Z,2.95
2022-11-19T18:26:34.821Z,1.85
2022-11-19T18:29:38.059Z,1.63
2022-11-19T18:32:39.692Z,0.95
2022-11-19T18:35:41.332Z,1.80
2022-11-19T18:38:43.587Z,1.95
2022-11-19T18:41:45.236Z,2.05
2022-11-19T18:44:48.316Z,1.52
2022-11-19T18:47:49.960Z,2.17
2022-11-19T18:50:51.694Z,2.28
2022-11-19T18:53:53.334Z,2.75
2022-11-19T18:56:55.272Z,2.70
2022-11-19T18:59:58.357Z,3.13
2022-11-19T19:03:00.666Z,2.28
2022-11-19T19:06:02.917Z,3.05
2022-11-19T19:09:04.807Z,3.42
2022-11-19T19:12:17.315Z,3.60
2022-11-19T19:15:20.451Z,2.85
2022-11-19T19:18:22.163Z,3.65
2022-11-19T19:21:24.196Z,2.40
2022-11-19T19:24:26.563Z,3.10
2022-11-19T19:27:28.249Z,2.75
2022-11-19T19:30:31.280Z,3.65
2022-11-19T19:33:33.047Z,3.85
2022-11-19T19:36:34.676Z,3.00
2022-11-19T19:39:36.386Z,3.20
2022-11-19T19:42:41.248Z,3.22
2022-11-19T19:45:45.026Z,3.30
2022-11-19T19:48:48.671Z,3.83
2022-11-19T19:51:50.842Z,3.45
2022-11-19T19:54:52.515Z,3.88
2022-11-19T19:57:55.126Z,3.90
2022-11-19T20:01:04.478Z,3.28
2022-11-19T20:04:08.304Z,3.47
2022-11-19T20:07:09.982Z,3.10
2022-11-19T20:10:12.628Z,3.40
2022-11-19T20:13:34.680Z,4.07
2022-11-19T20:16:40.294Z,2.40
2022-11-19T20:19:42.154Z,3.30
2022-11-19T20:22:43.868Z,3.90
2022-11-19T20:25:45.766Z,3.17
2022-11-19T20:28:48.110Z,3.15
2022-11-19T20:31:51.997Z,3.47
2022-11-19T20:34:53.698Z,3.13
2022-11-19T20:38:00.795Z,3.72
2022-11-19T20:41:06.830Z,3.67
2022-11-19T20:44:20.960Z,3.80
2022-11-19T20:47:24.228Z,3.42
2022-11-19T20:50:25.842Z,3.78
2022-11-19T20:53:27.514Z,3.92
2022-11-19T20:56:29.185Z,3.20
2022-11-19T20:59:31.086Z,2.63
2022-11-19T21:02:34.206Z,3.30
2022-11-19T21:05:35.891Z,3.78
2022-11-19T21:08:37.745Z,4.53
2022-11-19T21:11:39.623Z,3.05
2022-11-19T21:14:41.919Z,3.15
2022-11-19T21:17:44.881Z,2.85
2022-11-19T21:20:46.717Z,3.65
2022-11-19T21:23:48.468Z,3.45
2022-11-19T21:26:50.117Z,3.75
2022-11-19T21:29:51.824Z,3.50
2022-11-19T21:32:55.432Z,3.42
2022-11-19T21:35:58.340Z,4.05
2022-11-19T21:39:00.183Z,4.03
2022-11-19T21:42:01.902Z,2.88
2022-11-19T21:45:04.303Z,3.45
2022-11-19T21:48:07.583Z,3.67
2022-11-19T21:51:09.286Z,4.07
2022-11-19T21:54:10.968Z,3.75
2022-11-19T21:57:12.668Z,3.38
2022-11-19T22:00:14.884Z,3.10
2022-11-19T22:03:18.504Z,3.67
2022-11-19T22:06:20.185Z,3.95
2022-11-19T22:09:22.137Z,4.18
2022-11-19T22:12:24.333Z,3.75
2022-11-19T22:15:26.536Z,3.35
2022-11-19T22:18:29.489Z,3.83
2022-11-19T22:21:31.383Z,2.78
2022-11-19T22:24:33.007Z,3.03
2022-11-19T22:27:34.622Z,2.92
2022-11-19T22:30:36.295Z,2.45
2022-11-19T22:33:40.167Z,3.15
2022-11-19T22:36:42.796Z,3.53
2022-11-19T22:39:44.441Z,2.92
2022-11-19T22:42:46.070Z,3.42
2022-11-19T22:45:47.981Z,2.42
2022-11-19T22:48:51.663Z,3.30
2022-11-19T22:51:54.005Z,2.85
2022-11-19T22:54:55.650Z,3.03
2022-11-19T22:57:57.340Z,3.10
2022-11-19T23:00:59.201Z,3.50
2022-11-19T23:04:05.992Z,3.65
2022-11-19T23:07:08.463Z,2.90
2022-11-19T23:10:10.180Z,3.08
2022-11-19T23:13:31.270Z,3.72
2022-11-19T23:16:32.984Z,3.03
2022-11-19T23:19:37.797Z,3.15
2022-11-19T23:22:39.431Z,2.40
2022-11-19T23:25:41.137Z,3.05
2022-11-19T23:28:43.115Z,2.97
2022-11-19T23:31:44.846Z,2.83
2022-11-19T23:34:47.991Z,2.15
2022-11-19T23:37:49.650Z,3.47
2022-11-19T23:40:57.557Z,2.38
2022-11-19T23:43:59.290Z,2.63
2022-11-19T23:47:00.909Z,2.95
2022-11-19T23:50:04.602Z,2.40
2022-11-19T23:53:06.266Z,2.55
2022-11-19T23:56:08.154Z,2.65
2022-11-19T23:59:09.829Z,2.53
